Time;durP1;ratioP1;P1;durP2;ratioP2;P2;SDS_P1;SDS_P2;PMS_P1;PMS_P2;Temp;Humidity;BMP_temperature;BMP_pressure;BME280_temperature;BME280_humidity;BME280_pressure;Samples;Min_cycle;Max_cycle;Signal;HPM_P1;HPM_P2
2022/04/19 00:00:56;;;;;;;3.03;2.00;;;;;;;0.74;100.00;96356.41;10416274;28;20238;-55
2022/04/19 00:05:56;;;;;;;2.60;1.90;;;;;;;0.84;100.00;96347.94;10416447;28;20565;-57
2022/04/19 00:10:56;;;;;;;2.70;2.13;;;;;;;0.85;100.00;96343.59;10415963;28;20230;-54
2022/04/19 00:15:57;;;;;;;3.33;1.60;;;;;;;0.87;100.00;96331.41;10415697;28;20219;-58
2022/04/19 00:20:59;;;;;;;2.53;1.67;;;;;;;0.89;100.00;96324.41;10415720;28;20259;-57
2022/04/19 00:25:59;;;;;;;1.77;1.60;;;;;;;0.86;100.00;96319.47;10398146;28;20232;-55
2022/04/19 00:31:00;;;;;;;2.00;1.80;;;;;;;0.92;100.00;96315.63;10416406;28;20595;-55
2022/04/19 00:36:00;;;;;;;2.07;1.60;;;;;;;0.93;100.00;96310.34;10414959;28;20199;-58
2022/04/19 00:41:00;;;;;;;4.23;1.87;;;;;;;0.93;100.00;96309.53;10415286;28;20222;-57
2022/04/19 00:46:01;;;;;;;4.27;1.73;;;;;;;0.96;100.00;96305.00;10414847;28;20227;-58
2022/04/19 00:51:01;;;;;;;1.83;1.60;;;;;;;1.00;100.00;96301.28;10396878;28;20244;-56
2022/04/19 00:56:02;;;;;;;2.23;1.40;;;;;;;1.03;100.00;96283.00;10414599;28;20264;-59
2022/04/19 01:01:03;;;;;;;3.30;1.73;;;;;;;1.04;100.00;96291.56;10395608;28;20228;-57
2022/04/19 01:06:04;;;;;;;1.33;1.23;;;;;;;1.16;100.00;96279.56;10396063;28;20207;-58
2022/04/19 01:16:33;;;;;;;2.80;2.00;;;;;;;1.20;100.00;96273.25;10395628;28;20212;-54
2022/04/19 01:21:48;;;;;;;1.90;1.70;;;;;;;1.15;100.00;96262.41;10395430;28;20217;-56
2022/04/19 01:26:54;;;;;;;3.43;1.87;;;;;;;1.14;100.00;96268.53;10395588;28;20204;-53
2022/04/19 01:31:55;;;;;;;2.60;1.93;;;;;;;1.23;100.00;96255.78;10395054;28;20703;-55
2022/04/19 01:36:57;;;;;;;4.03;1.70;;;;;;;1.27;100.00;96251.22;10394908;28;20699;-58
2022/04/19 01:41:59;;;;;;;2.43;1.60;;;;;;;1.26;100.00;96252.16;10395180;28;20181;-54
2022/04/19 01:47:07;;;;;;;1.87;1.70;;;;;;;1.31;100.00;96239.75;10411943;28;20207;-58
2022/04/19 01:52:10;;;;;;;2.50;1.70;;;;;;;1.26;100.00;96241.84;10394657;28;20595;-55
2022/04/19 01:57:12;;;;;;;2.83;1.97;;;;;;;1.27;100.00;96238.31;10393823;28;20237;-55
2022/04/19 02:02:23;;;;;;;2.83;1.83;;;;;;;1.24;100.00;96236.81;10394231;28;20199;-55
2022/04/19 02:07:23;;;;;;;3.83;1.70;;;;;;;1.22;100.00;96237.84;10393665;28;20235;-58
2022/04/19 02:12:24;;;;;;;2.60;2.00;;;;;;;1.13;100.00;96234.16;10393830;28;20263;-57
2022/04/19 02:17:34;;;;;;;1.80;1.70;;;;;;;1.19;100.00;96227.72;10392463;28;20236;-57
2022/04/19 02:22:34;;;;;;;1.87;1.60;;;;;;;1.26;100.00;96218.63;10393546;28;20416;-54
2022/04/19 02:27:35;;;;;;;2.47;1.90;;;;;;;1.33;100.00;96213.84;10393907;28;20733;-55
2022/04/19 02:32:36;;;;;;;2.60;1.80;;;;;;;1.34;100.00;96221.47;10392942;28;20218;-56
2022/04/19 02:37:37;;;;;;;4.03;1.70;;;;;;;1.40;100.00;96221.00;10393230;28;20214;-54
2022/04/19 02:42:38;;;;;;;4.00;1.70;;;;;;;1.39;100.00;96216.81;10392963;28;20657;-55
2022/04/19 02:47:41;;;;;;;6.40;1.90;;;;;;;1.42;100.00;96208.84;10393489;28;20208;-56
2022/04/19 02:52:41;;;;;;;2.67;2.00;;;;;;;1.43;100.00;96202.72;10392958;28;20725;-55
2022/04/19 02:57:42;;;;;;;2.87;2.00;;;;;;;1.47;100.00;96203.34;10392159;28;20243;-57
2022/04/19 03:02:42;;;;;;;3.70;1.93;;;;;;;1.46;100.00;96187.97;10398951;28;20334;-55
2022/04/19 03:07:43;;;;;;;2.63;1.97;;;;;;;1.48;100.00;96179.16;10433219;28;20240;-55
2022/04/19 03:12:44;;;;;;;4.70;1.97;;;;;;;1.45;100.00;96178.56;10433590;28;20219;-57
2022/04/19 03:17:53;;;;;;;7.53;1.80;;;;;;;1.50;100.00;96172.16;10432654;28;20715;-55
2022/04/19 03:28:18;;;;;;;3.57;1.90;;;;;;;1.55;100.00;96171.81;10432568;28;20213;-55
2022/04/19 03:33:19;;;;;;;2.77;1.80;;;;;;;1.59;100.00;96175.78;10438924;28;20215;-54
2022/04/19 03:38:19;;;;;;;3.57;2.07;;;;;;;1.63;100.00;96164.28;10440570;28;20299;-54
2022/04/19 03:43:20;;;;;;;3.07;2.00;;;;;;;1.72;100.00;96167.97;10440391;28;20195;-57
2022/04/19 03:48:20;;;;;;;4.23;2.30;;;;;;;1.74;100.00;96155.75;10440542;28;20218;-56
2022/04/19 03:53:20;;;;;;;3.17;2.20;;;;;;;1.62;100.00;96159.25;10457919;28;20298;-56
2022/04/19 03:58:21;;;;;;;3.30;2.07;;;;;;;1.71;100.00;96149.03;10457493;28;20239;-55
2022/04/19 04:03:23;;;;;;;2.80;2.07;;;;;;;1.75;100.00;96145.28;10460603;22;20243;-53
2022/04/19 04:08:24;;;;;;;2.57;2.30;;;;;;;1.66;100.00;96148.56;10439078;28;20572;-53
2022/04/19 04:13:25;;;;;;;3.50;2.47;;;;;;;1.73;100.00;96154.94;10439527;28;20641;-51
2022/04/19 04:18:28;;;;;;;6.43;2.30;;;;;;;1.78;100.00;96145.06;10438721;28;20276;-51
2022/04/19 04:23:32;;;;;;;7.13;2.50;;;;;;;1.84;100.00;96156.69;10456874;28;20592;-53
2022/04/19 04:28:36;;;;;;;4.80;2.30;;;;;;;1.88;100.00;96157.28;10439609;28;20225;-52
2022/04/19 04:33:36;;;;;;;3.10;2.07;;;;;;;2.00;100.00;96156.34;10455082;28;20215;-51
2022/04/19 04:38:39;;;;;;;4.60;2.60;;;;;;;2.01;100.00;96157.19;10437908;28;20195;-52
2022/04/19 04:43:46;;;;;;;3.20;2.20;;;;;;;2.13;100.00;96153.66;10437515;28;20282;-51
2022/04/19 04:54:05;;;;;;;3.17;2.00;;;;;;;2.23;100.00;96146.00;10434867;28;20772;-59
2022/04/19 04:59:06;;;;;;;3.67;2.23;;;;;;;2.28;100.00;96139.56;10437898;28;20203;-54
2022/04/19 05:04:06;;;;;;;3.80;2.20;;;;;;;2.31;100.00;96143.63;10455354;28;20311;-56
2022/04/19 05:09:07;;;;;;;3.03;2.20;;;;;;;2.42;100.00;96140.22;10437455;28;20188;-55
2022/04/19 05:14:08;;;;;;;3.77;2.40;;;;;;;2.65;100.00;96146.19;10436409;28;20218;-57
2022/04/19 05:19:08;;;;;;;3.10;2.70;;;;;;;2.98;100.00;96144.44;10436593;28;20544;-55
2022/04/19 05:24:11;;;;;;;2.60;2.40;;;;;;;3.26;100.00;96150.75;10436949;28;20216;-57
2022/04/19 05:29:12;;;;;;;8.33;4.07;;;;;;;3.60;100.00;96140.25;10436295;28;20744;-55
2022/04/19 05:34:13;;;;;;;5.73;4.23;;;;;;;3.77;99.75;96128.47;10436658;28;20295;-58
2022/04/19 05:39:15;;;;;;;5.03;3.70;;;;;;;4.05;96.26;96123.56;10434977;28;20575;-54
2022/04/19 05:44:16;;;;;;;6.17;4.00;;;;;;;4.29;92.98;96110.25;10436029;28;20207;-56
2022/04/19 05:49:17;;;;;;;4.47;3.70;;;;;;;4.63;91.00;96102.94;10434552;28;20219;-60
2022/04/19 05:54:22;;;;;;;6.17;3.67;;;;;;;4.84;89.16;96099.44;10432085;28;20242;-54
2022/04/19 05:59:30;;;;;;;4.93;3.80;;;;;;;4.80;89.04;96104.06;10431895;28;20188;-53
2022/04/19 06:09:50;;;;;;;8.13;3.90;;;;;;;4.99;88.88;96105.00;10435371;28;20215;-53
2022/04/19 06:14:51;;;;;;;10.03;3.90;;;;;;;5.51;88.24;96094.31;10434065;28;20399;-56
2022/04/19 06:19:55;;;;;;;4.93;3.87;;;;;;;6.56;83.10;96053.38;10432943;28;20188;-53
2022/04/19 06:24:56;;;;;;;4.43;3.30;;;;;;;8.11;74.68;95953.63;10414000;28;20204;-54
2022/04/19 06:29:58;;;;;;;3.60;3.27;;;;;;;7.89;72.12;95955.06;10411650;28;20201;-53
2022/04/19 06:34:58;;;;;;;5.93;3.87;;;;;;;8.74;69.00;95923.56;10418347;28;20210;-53
2022/04/19 06:40:02;;;;;;;4.67;3.57;;;;;;;8.52;69.16;95943.28;10426709;28;20196;-57
2022/04/19 06:45:04;;;;;;;5.43;3.47;;;;;;;8.38;69.00;95946.53;10449086;28;20238;-55
2022/04/19 06:50:08;;;;;;;4.53;3.77;;;;;;;8.55;67.62;95927.31;10448827;28;20216;-53
2022/04/19 06:55:08;;;;;;;5.20;3.60;;;;;;;7.73;70.34;95979.28;10448791;28;20674;-55
2022/04/19 07:00:09;;;;;;;13.87;6.10;;;;;;;7.59;71.69;96001.53;10432815;28;20195;-54
2022/04/19 07:05:11;;;;;;;6.27;4.30;;;;;;;7.14;73.25;96039.06;10408939;28;20228;-52
2022/04/19 07:10:13;;;;;;;5.13;4.57;;;;;;;6.90;75.98;96071.72;10382303;28;20210;-52
2022/04/19 07:15:14;;;;;;;5.87;3.67;;;;;;;6.83;77.91;96116.72;10357610;28;20213;-51
2022/04/19 07:30:57;;;;;;;5.93;3.97;;;;;;;9.34;67.62;95973.75;10370690;28;20223;-58
2022/04/19 07:35:59;;;;;;;9.00;4.27;;;;;;;8.86;65.57;95917.97;10335948;28;20280;-58
2022/04/19 07:40:59;;;;;;;5.80;4.47;;;;;;;8.64;68.99;95998.63;10351212;28;20283;-56
2022/04/19 07:46:01;;;;;;;6.40;4.67;;;;;;;10.31;65.93;95970.88;10340053;28;20225;-59
2022/04/19 07:51:03;;;;;;;8.13;4.68;;;;;;;10.79;60.87;95873.81;10349733;28;20209;-59
2022/04/19 07:56:03;;;;;;;7.20;4.45;;;;;;;10.03;62.68;95922.63;10363394;28;20691;-59
2022/04/19 08:01:04;;;;;;;9.30;5.27;;;;;;;8.72;66.89;95985.56;10373524;28;20519;-59
2022/04/19 08:06:05;;;;;;;8.57;4.90;;;;;;;9.14;65.75;95968.06;10437709;28;20184;-59
2022/04/19 08:11:05;;;;;;;8.50;4.87;;;;;;;8.54;66.14;95975.25;10455652;28;20228;-60
2022/04/19 08:16:06;;;;;;;7.40;5.23;;;;;;;9.39;64.40;95960.19;10435514;28;20188;-59
2022/04/19 08:21:06;;;;;;;7.47;5.13;;;;;;;10.28;62.31;95931.97;10437413;28;20200;-59
2022/04/19 08:26:07;;;;;;;11.50;5.85;;;;;;;10.93;58.70;95859.09;10455412;28;20270;-60
2022/04/19 08:31:08;;;;;;;8.27;5.55;;;;;;;11.89;57.19;95863.53;10436456;28;20227;-60
2022/04/19 08:36:09;;;;;;;10.88;5.72;;;;;;;10.99;59.44;95908.16;10435959;28;20196;-58
2022/04/19 08:41:10;;;;;;;10.20;5.07;;;;;;;10.75;58.01;95887.44;10436619;28;20378;-60
2022/04/19 08:46:13;;;;;;;8.85;4.72;;;;;;;10.31;60.45;95942.09;10435111;28;20196;-57
2022/04/19 08:51:14;;;;;;;12.52;5.53;;;;;;;11.18;60.33;95946.16;10454155;28;20298;-59
2022/04/19 09:01:38;;;;;;;8.32;5.20;;;;;;;12.83;53.85;95820.50;10453877;28;20231;-59
2022/04/19 09:06:50;;;;;;;7.45;4.95;;;;;;;13.13;52.53;95812.38;10453885;28;20211;-59
2022/04/19 09:11:51;;;;;;;7.90;4.82;;;;;;;13.22;52.06;95810.41;10454021;28;20228;-59
2022/04/19 09:17:03;;;;;;;6.40;4.72;;;;;;;13.76;51.32;95809.63;10453655;28;20569;-58
2022/04/19 09:22:03;;;;;;;6.22;4.53;;;;;;;13.23;51.31;95793.63;10451823;28;20204;-60
2022/04/19 09:27:04;;;;;;;8.68;4.85;;;;;;;12.91;51.75;95809.03;10452557;28;20658;-62
2022/04/19 09:32:11;;;;;;;7.80;4.10;;;;;;;13.17;51.55;95814.44;10452496;28;20750;-60
2022/04/19 09:37:13;;;;;;;7.05;4.03;;;;;;;13.60;48.31;95744.19;10451921;28;20203;-58
2022/04/19 09:42:16;;;;;;;6.63;4.32;;;;;;;12.40;50.37;95778.56;10452617;28;20211;-61
2022/04/19 09:47:17;;;;;;;8.35;4.57;;;;;;;11.68;52.19;95810.00;10452450;28;20188;-61
2022/04/19 09:52:20;;;;;;;7.20;4.35;;;;;;;12.62;51.73;95821.38;10450304;28;20254;-62
2022/04/19 09:57:20;;;;;;;10.35;4.03;;;;;;;12.57;50.70;95797.50;10453037;28;20194;-60
2022/04/19 10:13:03;;;;;;;4.88;3.80;;;;;;;12.43;48.19;95738.78;10438601;28;20208;-59
2022/04/19 10:18:04;;;;;;;6.80;4.13;;;;;;;12.47;47.69;95730.34;10450517;28;20191;-58
2022/04/19 10:23:08;;;;;;;6.20;3.70;;;;;;;11.54;49.44;95753.16;10463190;28;20241;-61
2022/04/19 10:28:09;;;;;;;6.32;4.03;;;;;;;12.31;50.80;95804.16;10476741;28;20707;-58
2022/04/19 10:33:51;;;;;;;5.65;3.47;;;;;;;11.94;45.30;95643.34;10482824;28;20656;-59
2022/04/19 10:39:14;;;;;;;9.23;6.70;;;;;;;12.54;44.94;95646.31;10465911;28;20573;-61
2022/04/19 10:44:28;;;;;;;6.72;4.78;;;;;;;11.50;46.67;95668.81;10450323;28;20287;-61
2022/04/19 10:49:29;;;;;;;4.40;3.78;;;;;;;11.83;47.63;95707.63;10449968;28;20220;-61
2022/04/19 10:55:04;;;;;;;9.30;4.07;;;;;;;13.73;46.12;95728.41;10456787;28;20584;-56
2022/04/19 11:00:26;;;;;;;7.88;4.45;;;;;;;14.00;43.32;95644.19;10473627;28;20283;-61
2022/04/19 11:05:46;;;;;;;4.35;2.97;;;;;;;12.74;43.46;95614.88;10488210;28;20264;-61
2022/04/19 11:11:22;;;;;;;4.55;2.92;;;;;;;11.80;44.49;95628.47;10466665;28;20716;-61
2022/04/19 11:16:35;;;;;;;7.60;4.20;;;;;;;11.36;47.34;95711.63;10454134;28;20714;-61
2022/04/19 11:21:52;;;;;;;5.35;2.58;;;;;;;10.90;47.92;95699.63;10460297;28;20277;-61
2022/04/19 11:26:52;;;;;;;7.65;3.53;;;;;;;11.42;46.75;95705.63;10468751;28;20210;-61
2022/04/19 11:31:52;;;;;;;7.03;3.58;;;;;;;11.99;45.91;95695.25;10466951;28;20734;-61
2022/04/19 11:36:57;;;;;;;5.13;4.05;;;;;;;11.85;46.15;95694.31;10449630;28;20226;-60
2022/04/19 11:47:16;;;;;;;4.40;2.22;;;;;;;10.69;49.45;95765.88;10469461;28;20243;-60
2022/04/19 11:52:16;;;;;;;3.58;2.97;;;;;;;10.08;49.65;95751.03;10474492;28;20293;-60
2022/04/19 11:57:17;;;;;;;5.40;2.30;;;;;;;11.29;48.77;95782.34;10460321;28;20219;-59
2022/04/19 12:02:19;;;;;;;5.50;2.40;;;;;;;11.81;47.42;95730.63;10493237;28;20195;-60
2022/04/19 12:07:20;;;;;;;3.25;2.30;;;;;;;12.91;46.67;95770.41;10497351;28;20709;-61
2022/04/19 12:12:21;;;;;;;2.08;1.88;;;;;;;11.22;46.62;95705.41;10497771;28;20226;-62
2022/04/19 12:17:22;;;;;;;2.08;1.70;;;;;;;12.36;47.86;95779.94;10479039;28;20225;-62
2022/04/19 12:22:24;;;;;;;4.35;2.05;;;;;;;13.38;43.07;95663.59;10497251;28;20673;-62
2022/04/19 12:27:28;;;;;;;3.03;1.77;;;;;;;11.83;46.74;95714.69;10496776;28;20264;-62
2022/04/19 12:32:50;;;;;;;5.60;1.70;;;;;;;13.14;44.57;95728.03;10485329;28;20222;-60
2022/04/19 12:38:10;;;;;;;1.95;1.60;;;;;;;11.23;45.92;95688.69;10456374;28;20212;-60
2022/04/19 12:43:12;;;;;;;3.23;1.77;;;;;;;10.15;49.77;95790.38;10469883;28;20207;-59
2022/04/19 12:48:20;;;;;;;6.10;2.03;;;;;;;10.28;51.67;95866.53;10474025;28;20184;-56
2022/04/19 12:53:24;;;;;;;3.33;1.90;;;;;;;11.40;50.32;95860.53;10454188;28;20223;-60
2022/04/19 12:58:24;;;;;;;5.63;1.85;;;;;;;10.75;50.27;95838.50;10457217;28;20249;-56
2022/04/19 13:03:24;;;;;;;2.20;1.87;;;;;;;9.92;51.67;95864.50;10468734;28;20708;-58
2022/04/19 13:13:48;;;;;;;1.83;1.57;;;;;;;8.79;54.71;95930.91;10471241;28;20220;-55
2022/04/19 13:18:49;;;;;;;3.50;1.80;;;;;;;7.89;59.37;96007.22;10477522;28;20301;-56
2022/04/19 13:23:49;;;;;;;5.43;2.90;;;;;;;8.36;59.54;96034.56;10470641;28;20208;-59
2022/04/19 13:28:49;;;;;;;5.03;1.90;;;;;;;10.05;55.03;95965.97;10471377;28;20195;-57
2022/04/19 13:33:50;;;;;;;2.63;2.33;;;;;;;10.89;52.33;95890.09;10457665;28;20219;-58
2022/04/19 13:38:50;;;;;;;4.85;2.50;;;;;;;10.83;50.90;95848.09;10491117;28;20238;-59
2022/04/19 13:43:52;;;;;;;6.60;2.35;;;;;;;10.61;50.94;95850.59;10493769;28;20199;-59
2022/04/19 13:48:53;;;;;;;2.30;2.03;;;;;;;9.58;52.02;95849.16;10493504;28;20187;-55
2022/04/19 13:53:53;;;;;;;6.93;4.73;;;;;;;9.07;52.81;95875.66;10493435;28;20235;-58
2022/04/19 13:58:57;;;;;;;1.97;1.87;;;;;;;8.43;52.95;95854.69;10492981;28;20598;-60
2022/04/19 14:03:57;;;;;;;4.60;3.20;;;;;;;8.38;55.37;95920.44;10451944;28;20223;-56
2022/04/19 14:08:58;;;;;;;2.83;1.70;;;;;;;8.38;54.41;95895.13;10473128;28;20188;-58
2022/04/19 14:13:58;;;;;;;3.13;1.47;;;;;;;8.49;54.05;95908.88;10473782;28;20658;-61
2022/04/19 14:18:59;;;;;;;3.87;2.10;;;;;;;8.32;54.08;95915.84;10450847;28;20302;-58
2022/04/19 14:23:59;;;;;;;3.33;2.10;;;;;;;8.48;58.95;96075.09;10451123;28;20613;-59
2022/04/19 14:34:18;;;;;;;3.38;2.63;;;;;;;12.92;51.41;95995.47;10451154;28;20224;-60
2022/04/19 14:39:18;;;;;;;2.92;2.38;;;;;;;13.61;50.33;95994.00;10459560;28;20195;-58
2022/04/19 14:44:19;;;;;;;4.63;2.53;;;;;;;10.28;54.35;96018.34;10473750;28;20811;-59
2022/04/19 14:49:19;;;;;;;3.13;2.20;;;;;;;11.45;50.69;95930.00;10470210;28;20954;-58
2022/04/19 14:54:19;;;;;;;2.63;2.22;;;;;;;12.24;49.71;95937.22;10453154;28;20827;-59
2022/04/19 14:59:20;;;;;;;4.55;2.25;;;;;;;11.62;51.51;95967.34;10452445;28;20884;-59
2022/04/19 15:04:20;;;;;;;2.72;2.42;;;;;;;10.40;54.98;96024.06;10449150;28;20235;-58
2022/04/19 15:09:21;;;;;;;3.97;2.53;;;;;;;9.22;57.58;96063.94;10449379;28;20203;-57
2022/04/19 15:14:22;;;;;;;3.57;2.30;;;;;;;9.96;58.00;96108.28;10482347;28;20218;-55
2022/04/19 15:19:22;;;;;;;2.10;1.90;;;;;;;10.28;56.82;96089.03;10491264;28;20195;-58
2022/04/19 15:24:23;;;;;;;2.30;1.88;;;;;;;13.49;49.68;95992.91;10491029;28;20215;-56
2022/04/19 15:29:29;;;;;;;5.30;2.08;;;;;;;14.38;45.95;95902.53;10498481;28;20191;-57
2022/04/19 15:34:29;;;;;;;4.07;2.35;;;;;;;15.22;41.91;95807.16;10499267;28;20212;-59
2022/04/19 15:39:30;;;;;;;4.32;2.40;;;;;;;12.37;47.45;95876.94;10488457;28;20194;-55
2022/04/19 15:44:30;;;;;;;2.63;2.42;;;;;;;10.53;51.96;95979.78;10472696;28;20215;-58
2022/04/19 15:49:30;;;;;;;4.68;2.67;;;;;;;10.48;51.02;95962.97;10473606;28;20256;-59
2022/04/19 15:54:31;;;;;;;4.57;2.53;;;;;;;9.98;53.62;96012.94;10461551;28;20199;-57
2022/04/19 15:59:31;;;;;;;5.03;2.57;;;;;;;9.15;55.46;96042.06;10456262;28;20210;-56
2022/04/19 16:04:33;;;;;;;2.47;2.23;;;;;;;8.73;55.50;96031.59;10456290;28;20259;-59
2022/04/19 16:09:33;;;;;;;3.23;2.40;;;;;;;11.73;49.25;95953.75;10474671;22;20227;-59
2022/04/19 16:14:34;;;;;;;6.70;2.80;;;;;;;12.65;45.70;95884.06;10454553;28;20249;-58
2022/04/19 16:24:53;;;;;;;7.07;2.53;;;;;;;12.93;45.02;95862.22;10457056;28;20191;-59
2022/04/19 16:29:54;;;;;;;6.57;2.60;;;;;;;13.65;43.71;95858.38;10452753;28;20215;-55
2022/04/19 16:34:54;;;;;;;5.65;2.85;;;;;;;12.94;44.89;95877.81;10453059;28;20575;-55
2022/04/19 16:39:55;;;;;;;3.60;2.75;;;;;;;9.90;52.92;96026.03;10453136;28;20287;-57
2022/04/19 16:44:55;;;;;;;6.53;3.10;;;;;;;8.58;57.22;96111.53;10449429;28;20195;-59
2022/04/19 16:49:56;;;;;;;6.83;3.20;;;;;;;8.04;58.76;96124.81;10451432;28;20208;-55
2022/04/19 16:54:57;;;;;;;4.40;3.33;;;;;;;8.11;57.04;96096.31;10452330;28;20297;-54
2022/04/19 16:59:57;;;;;;;4.33;3.20;;;;;;;7.95;58.78;96144.00;10452537;28;20184;-57
2022/04/19 17:04:57;;;;;;;4.93;3.17;;;;;;;7.61;60.64;96196.88;10450646;28;20762;-54
2022/04/19 17:09:58;;;;;;;4.37;2.83;;;;;;;7.44;60.40;96190.72;10451842;28;20711;-56
2022/04/19 17:14:58;;;;;;;7.57;3.90;;;;;;;7.22;61.12;96218.84;10452001;28;20211;-54
2022/04/19 17:19:58;;;;;;;5.23;4.00;;;;;;;7.17;62.08;96239.31;10451571;28;20196;-54
2022/04/19 17:24:59;;;;;;;4.17;3.27;;;;;;;6.74;62.24;96227.78;10451092;28;20307;-51
2022/04/19 17:30:00;;;;;;;5.47;3.10;;;;;;;6.32;63.95;96249.03;10449802;28;20216;-56
2022/04/19 17:35:02;;;;;;;7.10;3.80;;;;;;;6.28;64.21;96277.09;10449451;28;20231;-55
2022/04/19 17:40:04;;;;;;;5.23;3.80;;;;;;;6.28;63.93;96258.91;10450190;28;20215;-59
2022/04/19 17:45:06;;;;;;;6.13;3.53;;;;;;;6.27;64.81;96291.06;10450009;28;20260;-54
2022/04/19 18:00:44;;;;;;;7.53;3.53;;;;;;;5.85;67.67;96356.31;10449962;28;20597;-52
2022/04/19 18:05:44;;;;;;;6.27;4.27;;;;;;;5.50;68.96;96378.44;10449024;28;20235;-50
2022/04/19 18:10:45;;;;;;;4.37;3.40;;;;;;;5.18;69.87;96393.25;10448102;28;20582;-55
2022/04/19 18:15:51;;;;;;;13.87;5.07;;;;;;;4.96;72.17;96435.78;10446696;28;20218;-53
2022/04/19 18:20:51;;;;;;;7.33;4.17;;;;;;;4.81;72.85;96448.25;10445516;28;20187;-57
2022/04/19 18:25:52;;;;;;;6.83;4.27;;;;;;;4.36;75.33;96471.00;10446080;28;20208;-52
2022/04/19 18:30:52;;;;;;;4.03;3.40;;;;;;;3.98;78.42;96487.84;10446743;28;20216;-54
2022/04/19 18:35:53;;;;;;;6.83;4.37;;;;;;;3.54;81.87;96487.78;10448110;28;20223;-51
2022/04/19 18:40:54;;;;;;;7.43;3.80;;;;;;;3.30;82.89;96482.72;10448540;28;20638;-56
2022/04/19 18:45:54;;;;;;;4.23;3.60;;;;;;;3.01;85.41;96473.63;10443157;28;20238;-51
2022/04/19 18:50:54;;;;;;;4.70;4.13;;;;;;;2.78;87.56;96466.75;10448218;28;20222;-56
2022/04/19 18:55:56;;;;;;;5.30;3.87;;;;;;;2.44;90.40;96477.00;10447528;28;20216;-56
2022/04/19 19:00:57;;;;;;;6.77;3.43;;;;;;;2.23;93.11;96481.97;10450717;28;20200;-53
2022/04/19 19:05:57;;;;;;;7.53;3.73;;;;;;;2.00;95.63;96489.59;10456260;28;20246;-54
2022/04/19 19:10:58;;;;;;;4.90;3.73;;;;;;;1.88;96.92;96501.59;10456097;28;20313;-51
2022/04/19 19:15:59;;;;;;;10.50;4.27;;;;;;;1.62;100.00;96507.78;10456272;28;20228;-52
2022/04/19 19:20:59;;;;;;;7.93;5.00;;;;;;;1.53;100.00;96516.97;10455285;28;20187;-55
2022/04/19 19:26:00;;;;;;;7.47;4.53;;;;;;;1.57;100.00;96518.44;10455265;28;20210;-51
2022/04/19 19:31:00;;;;;;;7.90;4.50;;;;;;;1.59;100.00;96526.88;10453824;28;20218;-53
2022/04/19 19:36:01;;;;;;;7.17;4.37;;;;;;;1.52;100.00;96528.25;10453392;28;20219;-53
2022/04/19 19:41:01;;;;;;;6.67;4.20;;;;;;;1.03;100.00;96537.53;10453285;28;20192;-53
2022/04/19 19:46:02;;;;;;;7.93;4.93;;;;;;;0.97;100.00;96537.94;10453634;28;20211;-52
2022/04/19 19:51:02;;;;;;;7.73;4.80;;;;;;;0.77;100.00;96554.72;10452127;28;20287;-53
2022/04/19 19:56:03;;;;;;;7.33;4.67;;;;;;;0.74;100.00;96554.94;10453942;28;20224;-55
2022/04/19 20:01:03;;;;;;;7.93;4.97;;;;;;;0.75;100.00;96559.13;10454335;28;20251;-54
2022/04/19 20:06:04;;;;;;;8.60;4.10;;;;;;;0.72;100.00;96565.34;10453778;28;20258;-52
2022/04/19 20:11:04;;;;;;;5.67;3.77;;;;;;;0.56;100.00;96565.47;10452878;28;20277;-53
2022/04/19 20:16:05;;;;;;;6.27;3.97;;;;;;;0.55;100.00;96566.41;10453386;28;20210;-52
2022/04/19 20:21:05;;;;;;;8.63;4.53;;;;;;;0.37;100.00;96555.53;10453844;28;20195;-51
2022/04/19 20:26:06;;;;;;;8.27;4.90;;;;;;;0.33;100.00;96569.53;10453347;28;20222;-56
2022/04/19 20:31:07;;;;;;;4.87;4.00;;;;;;;0.16;100.00;96549.97;10453436;28;20215;-55
2022/04/19 20:36:07;;;;;;;6.07;4.83;;;;;;;0.11;100.00;96555.41;10452769;28;20632;-53
2022/04/19 20:41:07;;;;;;;7.20;4.27;;;;;;;0.12;100.00;96567.38;10451684;28;20238;-57
2022/04/19 20:46:08;;;;;;;10.37;4.57;;;;;;;0.02;100.00;96557.75;10451764;28;20605;-59
2022/04/19 20:51:08;;;;;;;8.37;4.70;;;;;;;-0.13;100.00;96568.06;10453308;28;20311;-56
2022/04/19 20:56:09;;;;;;;7.53;4.70;;;;;;;-0.20;100.00;96571.91;10434897;28;20325;-52
2022/04/19 21:01:11;;;;;;;8.20;5.20;;;;;;;-0.29;100.00;96568.19;10452755;28;20258;-55
2022/04/19 21:06:11;;;;;;;6.53;4.37;;;;;;;-0.41;100.00;96569.72;10451452;28;20228;-53
2022/04/19 21:11:12;;;;;;;8.17;4.97;;;;;;;-0.51;100.00;96571.19;10452438;28;20232;-52
2022/04/19 21:16:12;;;;;;;9.10;4.77;;;;;;;-0.55;100.00;96565.41;10452184;28;20247;-54
2022/04/19 21:21:12;;;;;;;7.80;4.80;;;;;;;-0.61;100.00;96570.09;10452184;28;20191;-52
2022/04/19 21:26:13;;;;;;;7.50;4.00;;;;;;;-0.72;100.00;96566.41;10451359;28;20212;-51
2022/04/19 21:31:13;;;;;;;5.73;4.30;;;;;;;-0.75;100.00;96563.19;10451779;28;20315;-55
2022/04/19 21:36:14;;;;;;;6.83;4.90;;;;;;;-0.88;100.00;96565.66;10451144;28;20243;-52
2022/04/19 21:41:14;;;;;;;5.67;4.73;;;;;;;-1.04;100.00;96559.72;10451489;28;20184;-52
2022/04/19 21:46:14;;;;;;;9.10;5.23;;;;;;;-1.03;100.00;96556.25;10451110;28;20765;-51
2022/04/19 21:51:15;;;;;;;7.47;5.17;;;;;;;-1.12;100.00;96558.47;10450645;28;20839;-53
2022/04/19 21:56:15;;;;;;;9.40;4.87;;;;;;;-1.15;100.00;96553.50;10449950;28;20218;-52
2022/04/19 22:01:18;;;;;;;5.33;4.43;;;;;;;-1.15;100.00;96557.78;10449908;28;20196;-51
2022/04/19 22:06:20;;;;;;;10.87;4.97;;;;;;;-1.10;100.00;96566.09;10483555;22;20282;-56
2022/04/19 22:11:20;;;;;;;5.43;4.33;;;;;;;-1.13;100.00;96554.22;10531256;28;20261;-57
2022/04/19 22:16:21;;;;;;;5.97;4.43;;;;;;;-1.16;100.00;96564.69;10535523;28;20198;-59
2022/04/19 22:21:21;;;;;;;8.73;5.13;;;;;;;-1.17;100.00;96555.31;10536146;28;20197;-53
2022/04/19 22:26:21;;;;;;;7.37;4.90;;;;;;;-1.21;100.00;96548.72;10535356;28;20235;-54
2022/04/19 22:31:22;;;;;;;6.90;5.27;;;;;;;-1.27;100.00;96544.72;10535794;28;20222;-55
2022/04/19 22:36:22;;;;;;;5.80;4.77;;;;;;;-1.29;100.00;96548.28;10534535;28;20194;-55
2022/04/19 22:41:22;;;;;;;7.17;5.33;;;;;;;-1.33;100.00;96541.66;10535435;28;20174;-53
2022/04/19 22:46:23;;;;;;;13.30;6.60;;;;;;;-1.40;100.00;96540.38;10535275;28;20255;-53
2022/04/19 22:51:23;;;;;;;8.17;6.73;;;;;;;-1.44;100.00;96552.56;10534863;28;20309;-54
2022/04/19 22:56:23;;;;;;;12.17;6.97;;;;;;;-1.52;100.00;96547.84;10534677;28;20194;-56
2022/04/19 23:01:24;;;;;;;9.27;7.10;;;;;;;-1.50;100.00;96550.31;10534873;28;20274;-53
2022/04/19 23:06:24;;;;;;;9.23;6.90;;;;;;;-1.51;100.00;96548.69;10534590;28;20190;-55
2022/04/19 23:11:24;;;;;;;8.60;6.53;;;;;;;-1.54;100.00;96544.53;10534903;28;20230;-55
2022/04/19 23:16:25;;;;;;;10.77;7.73;;;;;;;-1.46;100.00;96541.53;10534524;28;20197;-54
2022/04/19 23:21:25;;;;;;;8.40;5.57;;;;;;;-1.42;100.00;96539.63;10534855;28;20190;-55
2022/04/19 23:31:44;;;;;;;10.03;7.93;;;;;;;-1.50;100.00;96540.06;10534596;28;20301;-57
2022/04/19 23:36:45;;;;;;;12.30;7.57;;;;;;;-1.48;100.00;96538.25;10534315;28;20212;-56
2022/04/19 23:41:45;;;;;;;9.17;7.00;;;;;;;-1.60;100.00;96541.50;10534211;28;20183;-56
2022/04/19 23:46:45;;;;;;;9.60;7.37;;;;;;;-1.60;100.00;96539.75;10536788;28;20229;-57
2022/04/19 23:51:46;;;;;;;9.53;7.33;;;;;;;-1.59;100.00;96545.72;10541514;28;20306;-56
2022/04/19 23:56:46;;;;;;;10.60;7.90;;;;;;;-1.69;100.00;96545.41;10541371;28;20233;-55
